createdAt,value
2022-08-22T00:00:07.120Z,0.00
2022-08-22T00:01:07.093Z,0.00
2022-08-22T00:02:09.079Z,0.00
2022-08-22T00:02:49.120Z,0.00
2022-08-22T00:02:54.354Z,0.00
2022-08-22T00:02:55.811Z,0.00
2022-08-22T00:03:03.073Z,0.00
2022-08-22T00:03:03.073Z,0.00
2022-08-22T00:03:03.075Z,0.00
2022-08-22T00:03:06.788Z,0.00
2022-08-22T00:03:08.441Z,0.00
2022-08-22T00:03:10.196Z,0.00
2022-08-22T00:03:11.735Z,0.00
2022-08-22T00:03:22.626Z,0.00
2022-08-22T00:04:09.037Z,0.00
2022-08-22T00:05:07.029Z,0.00
2022-08-22T00:06:07.004Z,0.00
2022-08-22T00:07:06.982Z,0.00
2022-08-22T00:08:06.999Z,0.00
2022-08-22T00:09:06.996Z,0.00
2022-08-22T00:10:07.942Z,0.00
2022-08-22T00:11:07.056Z,0.00
2022-08-22T00:12:06.911Z,0.00
2022-08-22T00:13:06.981Z,0.00
2022-08-22T00:14:06.889Z,0.00
2022-08-22T00:15:06.859Z,0.00
2022-08-22T00:16:06.853Z,0.00
2022-08-22T00:17:06.839Z,0.00
2022-08-22T00:18:06.866Z,0.00
2022-08-22T00:19:06.784Z,0.00
2022-08-22T00:20:06.778Z,0.00
2022-08-22T00:21:06.750Z,0.00
2022-08-22T00:22:06.747Z,0.00
2022-08-22T00:23:06.858Z,0.00
2022-08-22T00:24:06.715Z,0.00
2022-08-22T00:25:06.698Z,0.00
2022-08-22T00:26:07.676Z,0.00
2022-08-22T00:27:06.670Z,0.00
2022-08-22T00:28:06.667Z,0.00
2022-08-22T00:29:06.623Z,0.00
2022-08-22T00:30:07.596Z,0.00
2022-08-22T00:31:06.597Z,0.00
2022-08-22T00:32:06.570Z,0.00
2022-08-22T00:33:06.675Z,0.00
2022-08-22T00:34:06.551Z,0.00
2022-08-22T00:35:06.526Z,0.00
2022-08-22T00:36:06.514Z,0.00
2022-08-22T00:37:06.488Z,0.00
2022-08-22T00:38:06.536Z,0.00
2022-08-22T00:39:06.465Z,0.00
2022-08-22T00:40:06.473Z,0.00
2022-08-22T00:41:06.423Z,0.00
2022-08-22T00:42:06.431Z,0.00
2022-08-22T00:43:06.463Z,0.00
2022-08-22T00:44:06.388Z,0.00
2022-08-22T00:45:06.378Z,0.00
2022-08-22T00:46:06.339Z,0.00
2022-08-22T00:47:06.329Z,0.00
2022-08-22T00:48:06.345Z,0.00
2022-08-22T00:49:06.297Z,0.00
2022-08-22T00:50:06.272Z,0.00
2022-08-22T00:51:06.262Z,0.00
2022-08-22T00:52:06.238Z,0.00
2022-08-22T00:53:06.310Z,0.00
2022-08-22T00:54:06.881Z,0.00
2022-08-22T00:55:07.282Z,0.00
2022-08-22T00:56:06.176Z,0.00
2022-08-22T00:57:06.158Z,0.00
2022-08-22T00:58:06.173Z,0.00
2022-08-22T00:59:08.543Z,0.00
2022-08-22T01:00:07.123Z,0.00
2022-08-22T01:01:06.139Z,0.00
2022-08-22T01:02:06.082Z,0.00
2022-08-22T01:03:06.130Z,0.00
2022-08-22T01:04:06.056Z,0.00
2022-08-22T01:05:06.065Z,0.00
2022-08-22T01:06:06.087Z,0.00
2022-08-22T01:07:06.014Z,0.00
2022-08-22T01:08:06.026Z,0.00
2022-08-22T01:09:05.974Z,0.00
2022-08-22T01:10:05.959Z,0.00
2022-08-22T01:11:05.935Z,0.00
2022-08-22T01:12:05.914Z,0.00
2022-08-22T01:13:06.057Z,0.00
2022-08-22T01:14:05.877Z,0.00
2022-08-22T01:15:05.882Z,0.00
2022-08-22T01:16:05.838Z,0.00
2022-08-22T01:17:05.915Z,0.00
2022-08-22T01:18:05.852Z,0.00
2022-08-22T01:19:05.792Z,0.00
2022-08-22T01:20:05.804Z,0.00
2022-08-22T01:21:05.762Z,0.00
2022-08-22T01:22:05.764Z,0.00
2022-08-22T01:23:05.822Z,0.00
2022-08-22T01:24:05.725Z,0.00
2022-08-22T01:25:05.695Z,0.00
2022-08-22T01:26:05.689Z,0.00
2022-08-22T01:27:05.674Z,0.00
2022-08-22T01:28:05.773Z,0.00
2022-08-22T01:29:05.629Z,0.00
2022-08-22T01:30:05.610Z,0.00
2022-08-22T01:31:05.611Z,0.00
2022-08-22T01:32:05.574Z,0.00
2022-08-22T01:33:05.703Z,0.00
2022-08-22T01:34:05.556Z,0.00
2022-08-22T01:35:06.562Z,0.00
2022-08-22T01:36:05.515Z,0.00
2022-08-22T01:37:05.508Z,0.00
2022-08-22T01:38:05.516Z,0.00
2022-08-22T01:39:05.535Z,0.00
2022-08-22T01:40:05.522Z,0.00
2022-08-22T01:41:05.433Z,0.00
2022-08-22T01:42:05.416Z,0.00
2022-08-22T01:43:05.447Z,0.00
2022-08-22T01:44:05.393Z,0.00
2022-08-22T01:45:05.372Z,0.00
2022-08-22T01:46:05.365Z,0.00
2022-08-22T01:47:05.337Z,0.00
2022-08-22T01:48:05.343Z,0.00
2022-08-22T01:49:05.330Z,0.00
2022-08-22T01:50:05.356Z,0.00
2022-08-22T01:51:05.264Z,0.00
2022-08-22T01:52:05.259Z,0.00
2022-08-22T01:53:05.384Z,0.00
2022-08-22T01:54:05.216Z,0.00
2022-08-22T01:55:05.194Z,0.00
2022-08-22T01:56:05.200Z,0.00
2022-08-22T01:57:05.189Z,0.00
2022-08-22T01:58:05.189Z,0.00
2022-08-22T01:59:05.133Z,0.00
2022-08-22T02:00:06.129Z,0.00
2022-08-22T02:01:05.185Z,0.00
2022-08-22T02:02:05.078Z,0.00
2022-08-22T02:03:05.183Z,0.00
2022-08-22T02:04:05.060Z,0.00
2022-08-22T02:05:05.046Z,0.00
2022-08-22T02:06:05.010Z,0.00
2022-08-22T02:07:05.006Z,0.00
2022-08-22T02:08:05.015Z,0.00
2022-08-22T02:09:04.970Z,0.00
2022-08-22T02:10:04.959Z,0.00
2022-08-22T02:11:04.930Z,0.00
2022-08-22T02:12:04.950Z,0.00
2022-08-22T02:13:06.060Z,0.00
2022-08-22T02:14:04.893Z,0.00
2022-08-22T02:15:04.883Z,0.00
2022-08-22T02:16:04.880Z,0.00
2022-08-22T02:17:04.829Z,0.00
2022-08-22T02:18:04.871Z,0.00
2022-08-22T02:19:04.801Z,0.00
2022-08-22T02:20:04.786Z,0.00
2022-08-22T02:21:04.761Z,0.00
2022-08-22T02:22:04.750Z,0.00
2022-08-22T02:23:04.730Z,0.00
2022-08-22T02:24:04.758Z,0.00
2022-08-22T02:25:06.917Z,0.00
2022-08-22T02:26:04.724Z,0.00
2022-08-22T02:27:04.678Z,0.00
2022-08-22T02:28:04.649Z,0.00
2022-08-22T02:29:04.663Z,0.00
2022-08-22T02:30:04.622Z,0.00
2022-08-22T02:31:04.603Z,0.00
2022-08-22T02:32:04.582Z,0.00
2022-08-22T02:33:04.685Z,0.00
2022-08-22T02:34:04.648Z,0.00
2022-08-22T02:35:04.537Z,0.00
2022-08-22T02:36:04.531Z,0.00
2022-08-22T02:37:04.506Z,0.00
2022-08-22T02:38:04.498Z,0.00
2022-08-22T02:39:04.505Z,0.00
2022-08-22T02:40:04.539Z,0.00
2022-08-22T02:41:04.437Z,0.00
2022-08-22T02:42:04.445Z,0.00
2022-08-22T02:43:04.406Z,0.00
2022-08-22T02:44:04.424Z,0.00
2022-08-22T02:45:04.397Z,0.00
2022-08-22T02:46:04.387Z,0.00
2022-08-22T02:47:04.349Z,0.00
2022-08-22T02:48:04.322Z,0.00
2022-08-22T02:49:04.374Z,0.00
2022-08-22T02:50:04.562Z,0.00
2022-08-22T02:51:04.280Z,0.00
2022-08-22T02:52:04.264Z,0.00
2022-08-22T02:53:04.299Z,0.00
2022-08-22T02:54:04.255Z,0.00
2022-08-22T02:55:04.233Z,0.00
2022-08-22T02:56:04.230Z,0.00
2022-08-22T02:57:04.179Z,0.00
2022-08-22T02:58:04.173Z,0.00
2022-08-22T02:59:04.196Z,0.00
2022-08-22T03:00:04.163Z,0.00
2022-08-22T03:01:04.146Z,0.00
2022-08-22T03:02:04.105Z,0.00
2022-08-22T03:03:04.160Z,0.00
2022-08-22T03:04:04.108Z,0.00
2022-08-22T03:05:04.045Z,0.00
2022-08-22T03:06:04.033Z,0.00
2022-08-22T03:07:04.051Z,0.00
2022-08-22T03:08:04.003Z,0.00
2022-08-22T03:09:04.010Z,0.00
2022-08-22T03:10:03.968Z,0.00
2022-08-22T03:11:03.964Z,0.00
2022-08-22T03:12:03.973Z,0.00
2022-08-22T03:13:03.922Z,0.00
2022-08-22T03:14:03.944Z,0.00
2022-08-22T03:15:03.908Z,0.00
2022-08-22T03:16:03.885Z,0.00
2022-08-22T03:17:03.862Z,0.00
2022-08-22T03:18:03.905Z,0.00
2022-08-22T03:19:03.867Z,0.00
2022-08-22T03:20:03.820Z,0.00
2022-08-22T03:21:03.787Z,0.00
2022-08-22T03:22:03.808Z,0.00
2022-08-22T03:23:03.836Z,0.00
2022-08-22T03:24:03.775Z,0.00
2022-08-22T03:25:03.728Z,0.00
2022-08-22T03:26:07.448Z,0.00
2022-08-22T03:27:03.688Z,0.00
2022-08-22T03:28:03.674Z,0.00
2022-08-22T03:29:03.698Z,0.00
2022-08-22T03:30:03.636Z,0.00
2022-08-22T03:31:03.642Z,0.00
2022-08-22T03:32:03.606Z,0.00
2022-08-22T03:33:03.704Z,0.00
2022-08-22T03:34:03.607Z,0.00
2022-08-22T03:35:03.566Z,0.00
2022-08-22T03:36:03.544Z,0.00
2022-08-22T03:37:03.529Z,0.00
2022-08-22T03:38:03.509Z,0.00
2022-08-22T03:39:03.543Z,0.00
2022-08-22T03:40:04.652Z,0.00
2022-08-22T03:41:03.463Z,0.00
2022-08-22T03:42:03.455Z,0.00
2022-08-22T03:43:03.995Z,0.00
2022-08-22T03:44:03.499Z,0.00
2022-08-22T03:45:03.396Z,0.00
2022-08-22T03:46:03.386Z,0.00
2022-08-22T03:47:03.361Z,0.00
2022-08-22T03:48:03.351Z,0.00
2022-08-22T03:49:03.353Z,0.00
2022-08-22T03:50:03.305Z,0.00
2022-08-22T03:51:03.365Z,0.00
2022-08-22T03:52:03.279Z,0.00
2022-08-22T03:53:03.338Z,0.00
2022-08-22T03:54:03.282Z,0.00
2022-08-22T03:55:03.224Z,0.00
2022-08-22T03:56:03.205Z,0.00
2022-08-22T03:57:03.246Z,0.00
2022-08-22T03:58:03.165Z,0.00
2022-08-22T03:59:03.217Z,0.00
2022-08-22T04:00:04.148Z,0.00
2022-08-22T04:01:03.183Z,0.00
2022-08-22T04:02:03.208Z,0.00
2022-08-22T04:03:04.128Z,0.00
2022-08-22T04:04:03.102Z,0.00
2022-08-22T04:05:03.056Z,0.00
2022-08-22T04:06:03.050Z,5.62
2022-08-22T04:07:03.023Z,5.62
2022-08-22T04:08:03.011Z,5.62
2022-08-22T04:09:03.049Z,5.62
2022-08-22T04:10:03.013Z,5.62
2022-08-22T04:11:02.962Z,5.62
2022-08-22T04:12:02.963Z,5.62
2022-08-22T04:13:03.013Z,11.25
2022-08-22T04:14:02.914Z,11.25
2022-08-22T04:15:02.893Z,11.25
2022-08-22T04:16:02.890Z,11.25
2022-08-22T04:17:02.875Z,16.88
2022-08-22T04:18:02.871Z,16.88
2022-08-22T04:19:02.822Z,16.88
2022-08-22T04:20:02.852Z,22.50
2022-08-22T04:21:02.798Z,22.50
2022-08-22T04:22:02.772Z,22.50
2022-08-22T04:23:02.879Z,28.12
2022-08-22T04:24:02.807Z,28.12
2022-08-22T04:25:07.117Z,28.12
2022-08-22T04:26:12.417Z,33.75
2022-08-22T04:27:03.691Z,33.75
2022-08-22T04:28:02.706Z,39.38
2022-08-22T04:29:02.663Z,45.00
2022-08-22T04:30:02.656Z,45.00
2022-08-22T04:31:02.618Z,50.62
2022-08-22T04:32:02.621Z,56.25
2022-08-22T04:33:02.687Z,61.88
2022-08-22T04:34:02.591Z,67.50
2022-08-22T04:35:02.659Z,73.12
2022-08-22T04:36:02.562Z,78.75
2022-08-22T04:37:02.533Z,84.38
2022-08-22T04:38:02.547Z,90.00
2022-08-22T04:39:02.494Z,101.25
2022-08-22T04:40:02.531Z,106.88
2022-08-22T04:41:04.549Z,112.50
2022-08-22T04:42:16.374Z,123.75
2022-08-22T04:43:04.508Z,135.00
2022-08-22T04:44:02.418Z,135.00
2022-08-22T04:45:02.411Z,140.62
2022-08-22T04:46:02.500Z,151.88
2022-08-22T04:47:02.372Z,157.50
2022-08-22T04:48:02.383Z,163.12
2022-08-22T04:49:02.336Z,174.38
2022-08-22T04:50:02.325Z,180.00
2022-08-22T04:51:02.326Z,185.62
2022-08-22T04:52:02.365Z,191.25
2022-08-22T04:53:02.439Z,196.88
2022-08-22T04:54:02.266Z,202.50
2022-08-22T04:55:02.272Z,208.12
2022-08-22T04:56:06.762Z,213.75
2022-08-22T04:57:04.294Z,219.38
2022-08-22T04:58:02.215Z,225.00
2022-08-22T04:59:02.956Z,236.25
2022-08-22T05:00:02.211Z,247.50
2022-08-22T05:01:03.135Z,258.75
2022-08-22T05:02:02.207Z,258.75
2022-08-22T05:03:02.198Z,258.75
2022-08-22T05:04:02.105Z,264.38
2022-08-22T05:05:02.070Z,286.88
2022-08-22T05:06:02.065Z,292.50
2022-08-22T05:07:02.056Z,298.12
2022-08-22T05:08:02.084Z,298.12
2022-08-22T05:09:02.011Z,309.38
2022-08-22T05:10:09.334Z,337.50
2022-08-22T05:11:02.972Z,343.12
2022-08-22T05:12:01.955Z,331.88
2022-08-22T05:13:02.085Z,337.50
2022-08-22T05:14:01.916Z,410.62
2022-08-22T05:15:01.899Z,883.12
2022-08-22T05:16:01.875Z,1383.75
2022-08-22T05:17:01.864Z,1653.75
2022-08-22T05:18:01.894Z,1800.00
2022-08-22T05:19:01.872Z,1878.75
2022-08-22T05:20:01.810Z,1856.25
2022-08-22T05:21:01.790Z,2030.62
2022-08-22T05:22:01.774Z,2086.88
2022-08-22T05:23:01.824Z,2109.38
2022-08-22T05:24:01.734Z,1996.88
2022-08-22T05:25:01.725Z,2188.12
2022-08-22T05:26:01.719Z,2233.12
2022-08-22T05:27:01.691Z,2188.12
2022-08-22T05:28:01.704Z,2143.12
2022-08-22T05:29:01.651Z,1845.00
2022-08-22T05:30:01.855Z,1068.75
2022-08-22T05:31:01.645Z,607.50
2022-08-22T05:32:01.609Z,630.00
2022-08-22T05:33:02.659Z,1282.50
2022-08-22T05:34:01.579Z,2086.88
2022-08-22T05:35:01.562Z,2345.62
2022-08-22T05:36:01.553Z,2368.12
2022-08-22T05:37:01.514Z,2587.50
2022-08-22T05:38:01.549Z,2576.25
2022-08-22T05:39:01.499Z,2413.12
2022-08-22T05:40:01.535Z,2632.50
2022-08-22T05:41:01.483Z,2570.62
2022-08-22T05:42:01.454Z,2722.50
2022-08-22T05:43:01.492Z,2722.50
2022-08-22T05:44:01.404Z,2615.62
2022-08-22T05:45:01.395Z,2806.88
2022-08-22T05:46:01.453Z,2896.88
2022-08-22T05:47:01.385Z,2908.12
2022-08-22T05:48:01.377Z,3015.00
2022-08-22T05:49:01.319Z,2829.38
2022-08-22T05:50:01.369Z,2716.88
2022-08-22T05:51:01.337Z,1918.12
2022-08-22T05:52:01.284Z,995.62
2022-08-22T05:53:01.298Z,894.38
2022-08-22T05:54:01.278Z,1856.25
2022-08-22T05:55:01.235Z,2756.25
2022-08-22T05:56:01.221Z,3133.12
2022-08-22T05:57:03.903Z,3408.75
2022-08-22T05:58:01.230Z,3386.25
2022-08-22T05:59:01.184Z,3200.62
2022-08-22T06:00:01.154Z,3105.00
2022-08-22T06:01:01.196Z,3549.38
2022-08-22T06:02:01.197Z,3245.62
2022-08-22T06:03:02.247Z,3363.75
2022-08-22T06:04:01.091Z,3740.62
2022-08-22T06:05:01.074Z,3628.12
2022-08-22T06:06:01.053Z,3481.88
2022-08-22T06:07:01.032Z,3757.50
2022-08-22T06:08:01.051Z,3375.00
2022-08-22T06:09:01.167Z,3611.25
2022-08-22T06:10:00.995Z,3555.00
2022-08-22T06:11:00.988Z,3442.50
2022-08-22T06:12:00.961Z,3915.00
2022-08-22T06:13:00.990Z,3645.00
2022-08-22T06:14:00.929Z,2446.88
2022-08-22T06:15:00.902Z,1254.38
2022-08-22T06:16:01.898Z,1102.50
2022-08-22T06:17:00.908Z,2407.50
2022-08-22T06:18:01.070Z,3397.50
2022-08-22T06:19:00.855Z,3825.00
2022-08-22T06:20:33.217Z,4494.38
2022-08-22T06:21:00.839Z,4325.62
2022-08-22T06:22:00.804Z,3999.38
2022-08-22T06:23:00.849Z,3661.88
2022-08-22T06:24:00.790Z,3909.38
2022-08-22T06:25:00.765Z,4021.88
2022-08-22T06:26:00.788Z,4061.25
2022-08-22T06:27:00.735Z,4280.62
2022-08-22T06:28:00.752Z,4522.50
2022-08-22T06:29:00.711Z,4252.50
2022-08-22T06:30:00.697Z,4207.50
2022-08-22T06:31:00.675Z,4365.00
2022-08-22T06:32:00.668Z,4083.75
2022-08-22T06:33:00.999Z,4033.12
2022-08-22T06:34:00.625Z,3605.62
2022-08-22T06:35:00.623Z,3954.38
2022-08-22T06:36:00.594Z,4848.75
2022-08-22T06:37:00.590Z,4646.25
2022-08-22T06:38:00.666Z,3695.62
2022-08-22T06:39:00.557Z,2289.38
2022-08-22T06:40:00.618Z,1158.75
2022-08-22T06:41:00.528Z,2064.38
2022-08-22T06:42:00.503Z,3768.75
2022-08-22T06:43:00.529Z,4494.38
2022-08-22T06:44:00.485Z,4320.00
2022-08-22T06:45:00.462Z,4404.38
2022-08-22T06:46:00.451Z,4646.25
2022-08-22T06:47:00.420Z,5135.62
2022-08-22T06:48:01.040Z,4741.88
2022-08-22T06:49:01.435Z,4190.62
2022-08-22T06:50:00.374Z,4376.25
2022-08-22T06:51:00.369Z,4713.75
2022-08-22T06:52:00.355Z,4567.50
2022-08-22T06:53:00.344Z,4584.38
2022-08-22T06:54:00.351Z,4410.00
2022-08-22T06:55:00.430Z,3256.88
2022-08-22T06:56:00.278Z,2064.38
2022-08-22T06:57:00.289Z,1260.00
2022-08-22T06:58:00.435Z,1164.38
2022-08-22T06:59:00.275Z,1170.00
2022-08-22T07:00:00.234Z,1181.25
2022-08-22T07:01:11.067Z,1203.75
2022-08-22T07:02:01.250Z,1231.88
2022-08-22T07:03:00.170Z,1293.75
2022-08-22T07:04:00.196Z,1794.38
2022-08-22T07:05:00.205Z,2638.12
2022-08-22T07:06:00.139Z,3583.12
2022-08-22T07:07:00.111Z,4134.38
2022-08-22T07:08:00.290Z,4342.50
2022-08-22T07:09:00.153Z,4792.50
2022-08-22T07:10:01.079Z,4708.12
2022-08-22T07:11:00.166Z,4516.88
2022-08-22T07:12:00.047Z,4646.25
2022-08-22T07:13:00.026Z,4708.12
2022-08-22T07:14:00.110Z,4753.12
2022-08-22T07:14:59.997Z,4775.62
2022-08-22T07:15:59.992Z,4888.12
2022-08-22T07:16:59.967Z,5045.62
2022-08-22T07:18:00.072Z,5096.25
2022-08-22T07:18:59.968Z,4820.62
2022-08-22T07:19:59.923Z,4764.38
2022-08-22T07:20:59.923Z,5101.88
2022-08-22T07:21:59.900Z,5006.25
2022-08-22T07:22:59.917Z,4702.50
2022-08-22T07:23:59.894Z,4426.88
2022-08-22T07:24:59.859Z,4831.88
2022-08-22T07:25:59.862Z,5276.25
2022-08-22T07:26:59.821Z,5124.38
2022-08-22T07:27:59.941Z,5023.12
2022-08-22T07:28:59.826Z,5270.62
2022-08-22T07:29:59.835Z,5135.62
2022-08-22T07:30:59.905Z,4899.38
2022-08-22T07:31:59.750Z,4989.38
2022-08-22T07:33:01.490Z,5017.50
2022-08-22T07:34:00.757Z,4876.88
2022-08-22T07:34:59.712Z,5051.25
2022-08-22T07:35:59.728Z,5467.50
2022-08-22T07:36:59.700Z,5298.75
2022-08-22T07:37:59.814Z,4905.00
2022-08-22T07:38:59.692Z,5220.00
2022-08-22T07:39:59.683Z,5698.12
2022-08-22T07:40:59.660Z,5551.88
2022-08-22T07:41:59.623Z,5501.25
2022-08-22T07:42:59.589Z,5191.88
2022-08-22T07:43:59.626Z,5113.12
2022-08-22T07:44:59.596Z,5040.00
2022-08-22T07:45:59.559Z,5163.75
2022-08-22T07:46:59.561Z,5281.88
2022-08-22T07:47:59.574Z,5034.38
2022-08-22T07:49:09.173Z,3909.38
2022-08-22T07:50:01.508Z,5636.25
2022-08-22T07:50:59.488Z,5253.75
2022-08-22T07:51:59.481Z,5647.50
2022-08-22T07:53:00.428Z,5799.38
2022-08-22T07:54:00.981Z,5602.50
2022-08-22T07:55:00.440Z,5141.25
2022-08-22T07:55:59.431Z,4629.38
2022-08-22T07:56:59.412Z,4218.75
2022-08-22T07:57:59.657Z,4764.38
2022-08-22T07:58:59.431Z,5034.38
2022-08-22T07:59:59.415Z,5203.12
2022-08-22T08:00:59.380Z,3571.88
2022-08-22T08:01:59.397Z,2767.50
2022-08-22T08:02:59.355Z,3043.12
2022-08-22T08:03:59.357Z,5360.62
2022-08-22T08:04:59.314Z,5748.75
2022-08-22T08:05:59.290Z,5990.62
2022-08-22T08:06:59.288Z,5743.12
2022-08-22T08:07:59.400Z,5411.25
2022-08-22T08:08:59.309Z,5118.75
2022-08-22T08:09:59.243Z,5439.38
2022-08-22T08:10:59.229Z,5557.50
2022-08-22T08:11:59.216Z,5422.50
2022-08-22T08:13:02.163Z,5658.75
2022-08-22T08:13:59.231Z,5439.38
2022-08-22T08:14:59.185Z,4573.12
2022-08-22T08:15:59.174Z,5090.62
2022-08-22T08:16:59.256Z,5658.75
2022-08-22T08:17:59.272Z,5861.25
2022-08-22T08:18:59.154Z,5557.50
2022-08-22T08:19:59.111Z,5248.12
2022-08-22T08:20:59.174Z,5501.25
2022-08-22T08:21:59.088Z,5281.88
2022-08-22T08:22:59.077Z,5101.88
2022-08-22T08:23:59.092Z,5371.88
2022-08-22T08:24:59.052Z,5816.25
2022-08-22T08:25:59.026Z,5349.38
2022-08-22T08:26:59.019Z,5163.75
2022-08-22T08:27:59.082Z,5045.62
2022-08-22T08:28:59.024Z,5703.75
2022-08-22T08:29:58.974Z,6508.12
2022-08-22T08:30:59.131Z,5788.12
2022-08-22T08:31:58.956Z,5000.62
2022-08-22T08:33:24.441Z,5180.62
2022-08-22T08:33:59.949Z,5225.62
2022-08-22T08:34:58.905Z,5045.62
2022-08-22T08:36:02.845Z,5326.88
2022-08-22T08:36:58.994Z,5636.25
2022-08-22T08:37:59.013Z,5349.38
2022-08-22T08:38:58.918Z,5490.00
2022-08-22T08:39:58.938Z,5501.25
2022-08-22T08:40:58.850Z,4848.75
2022-08-22T08:41:58.821Z,2767.50
2022-08-22T08:42:58.807Z,2250.00
2022-08-22T08:43:58.818Z,1861.88
2022-08-22T08:44:58.779Z,2109.38
2022-08-22T08:45:59.119Z,1805.62
2022-08-22T08:46:58.754Z,1653.75
2022-08-22T08:47:58.925Z,1755.00
2022-08-22T08:48:58.759Z,1591.88
2022-08-22T08:49:58.719Z,2351.25
2022-08-22T08:50:58.709Z,2075.62
2022-08-22T08:51:58.682Z,1951.88
2022-08-22T08:52:58.678Z,3060.00
2022-08-22T08:53:58.694Z,4792.50
2022-08-22T08:54:58.687Z,5191.88
2022-08-22T08:55:58.644Z,4095.00
2022-08-22T08:56:58.658Z,4308.75
2022-08-22T08:57:58.726Z,4241.25
2022-08-22T08:58:59.635Z,2041.88
2022-08-22T08:59:58.582Z,4606.88
2022-08-22T09:00:59.401Z,1996.88
2022-08-22T09:01:58.564Z,1991.25
2022-08-22T09:02:58.538Z,2362.50
2022-08-22T09:03:58.587Z,3324.38
2022-08-22T09:04:58.508Z,5512.50
2022-08-22T09:05:58.531Z,4781.25
2022-08-22T09:07:01.347Z,5062.50
2022-08-22T09:07:58.682Z,5636.25
2022-08-22T09:08:58.477Z,4860.00
2022-08-22T09:09:58.443Z,5152.50
2022-08-22T09:10:58.452Z,5231.25
2022-08-22T09:11:58.406Z,4623.75
2022-08-22T09:13:11.593Z,4882.50
2022-08-22T09:13:59.403Z,4471.88
2022-08-22T09:14:58.371Z,5315.62
2022-08-22T09:16:04.489Z,5062.50
2022-08-22T09:16:59.342Z,4618.12
2022-08-22T09:17:58.456Z,4888.12
2022-08-22T09:18:58.349Z,4770.00
2022-08-22T09:19:58.305Z,4792.50
2022-08-22T09:20:58.300Z,5220.00
2022-08-22T09:21:58.275Z,5017.50
2022-08-22T09:22:58.264Z,4725.00
2022-08-22T09:23:58.281Z,4533.75
2022-08-22T09:24:58.236Z,4753.12
2022-08-22T09:25:58.249Z,4629.38
2022-08-22T09:26:58.205Z,4826.25
2022-08-22T09:27:58.424Z,4843.12
2022-08-22T09:28:58.214Z,4623.75
2022-08-22T09:29:59.839Z,4573.12
2022-08-22T09:30:58.161Z,5023.12
2022-08-22T09:32:00.169Z,4837.50
2022-08-22T09:32:59.118Z,4606.88
2022-08-22T09:33:58.163Z,4702.50
2022-08-22T09:34:58.135Z,5101.88
2022-08-22T09:35:58.094Z,5265.00
2022-08-22T09:36:58.076Z,4674.38
2022-08-22T09:37:58.227Z,4297.50
2022-08-22T09:38:58.094Z,5051.25
2022-08-22T09:39:58.109Z,5208.75
2022-08-22T09:40:58.029Z,4713.75
2022-08-22T09:41:58.011Z,4393.12
2022-08-22T09:42:58.133Z,4466.25
2022-08-22T09:43:58.022Z,4539.38
2022-08-22T09:44:57.978Z,4528.12
2022-08-22T09:45:57.964Z,4353.75
2022-08-22T09:46:57.970Z,4702.50
2022-08-22T09:48:02.158Z,4455.00
2022-08-22T09:48:58.958Z,4505.62
2022-08-22T09:49:57.933Z,4876.88
2022-08-22T09:51:08.305Z,4696.88
2022-08-22T09:52:03.655Z,4539.38
2022-08-22T09:52:59.011Z,4646.25
2022-08-22T09:53:57.913Z,4708.12
2022-08-22T09:54:57.877Z,4685.62
2022-08-22T09:55:57.845Z,4550.62
2022-08-22T09:56:57.839Z,4320.00
2022-08-22T09:57:57.819Z,4140.00
2022-08-22T09:58:57.851Z,4443.75
2022-08-22T09:59:58.089Z,4269.38
2022-08-22T10:00:57.805Z,4370.62
2022-08-22T10:01:57.772Z,4522.50
2022-08-22T10:02:57.774Z,4370.62
2022-08-22T10:03:57.782Z,4483.12
2022-08-22T10:04:58.172Z,4511.25
2022-08-22T10:05:57.716Z,4235.62
2022-08-22T10:06:57.698Z,4083.75
2022-08-22T10:07:57.702Z,3976.88
2022-08-22T10:08:57.807Z,4263.75
2022-08-22T10:09:57.687Z,4235.62
2022-08-22T10:10:57.692Z,4117.50
2022-08-22T10:11:57.647Z,3937.50
2022-08-22T10:12:57.807Z,4038.75
2022-08-22T10:14:01.204Z,4280.62
2022-08-22T10:14:57.614Z,4291.88
2022-08-22T10:15:57.604Z,4483.12
2022-08-22T10:16:57.583Z,4353.75
2022-08-22T10:17:57.570Z,4393.12
2022-08-22T10:19:00.557Z,3943.12
2022-08-22T10:19:58.534Z,4156.88
2022-08-22T10:20:57.519Z,4123.12
2022-08-22T10:21:57.509Z,4005.00
2022-08-22T10:22:57.598Z,4061.25
2022-08-22T10:23:57.539Z,3780.00
2022-08-22T10:24:58.609Z,4140.00
2022-08-22T10:25:57.468Z,4106.25
2022-08-22T10:26:57.452Z,4320.00
2022-08-22T10:27:57.443Z,4027.50
2022-08-22T10:28:57.453Z,3735.00
2022-08-22T10:29:57.450Z,3678.75
2022-08-22T10:30:57.411Z,3656.25
2022-08-22T10:31:59.420Z,3864.38
2022-08-22T10:32:57.395Z,3763.12
2022-08-22T10:33:57.343Z,3757.50
2022-08-22T10:34:57.326Z,3802.50
2022-08-22T10:35:57.326Z,3740.62
2022-08-22T10:36:57.300Z,3819.38
2022-08-22T10:37:57.331Z,3802.50
2022-08-22T10:38:57.271Z,3825.00
2022-08-22T10:39:57.351Z,3993.75
2022-08-22T10:40:57.245Z,3988.12
2022-08-22T10:41:57.539Z,3830.62
2022-08-22T10:42:59.419Z,4061.25
2022-08-22T10:44:01.555Z,3892.50
2022-08-22T10:44:58.189Z,3735.00
2022-08-22T10:45:57.170Z,3526.88
2022-08-22T10:46:57.244Z,2311.88
2022-08-22T10:47:57.141Z,1198.12
2022-08-22T10:48:57.162Z,1164.38
2022-08-22T10:49:57.119Z,1147.50
2022-08-22T10:50:57.109Z,1136.25
2022-08-22T10:51:57.092Z,1130.62
2022-08-22T10:52:57.111Z,1130.62
2022-08-22T10:53:57.082Z,1130.62
2022-08-22T10:54:57.065Z,1125.00
2022-08-22T10:55:57.034Z,1119.38
2022-08-22T10:56:57.022Z,1113.75
2022-08-22T10:57:57.029Z,1113.75
2022-08-22T10:58:56.989Z,1113.75
2022-08-22T10:59:56.980Z,1113.75
2022-08-22T11:00:56.995Z,1125.00
2022-08-22T11:01:57.061Z,1136.25
2022-08-22T11:02:58.497Z,1141.88
2022-08-22T11:03:56.990Z,1158.75
2022-08-22T11:04:56.905Z,1158.75
2022-08-22T11:05:56.912Z,1153.12
2022-08-22T11:06:56.886Z,1147.50
2022-08-22T11:07:56.917Z,1125.00
2022-08-22T11:08:56.863Z,1096.88
2022-08-22T11:09:56.895Z,1063.12
2022-08-22T11:10:56.820Z,1035.00
2022-08-22T11:11:56.792Z,1012.50
2022-08-22T11:12:56.872Z,1001.25
2022-08-22T11:13:56.779Z,1001.25
2022-08-22T11:14:56.788Z,973.12
2022-08-22T11:15:56.738Z,855.00
2022-08-22T11:16:56.712Z,742.50
2022-08-22T11:17:56.753Z,753.75
2022-08-22T11:18:57.977Z,759.38
2022-08-22T11:19:57.675Z,776.25
2022-08-22T11:20:56.668Z,776.25
2022-08-22T11:21:56.654Z,770.62
2022-08-22T11:22:57.192Z,736.88
2022-08-22T11:23:56.600Z,708.75
2022-08-22T11:24:58.044Z,736.88
2022-08-22T11:25:56.574Z,849.38
2022-08-22T11:26:56.583Z,826.88
2022-08-22T11:27:56.576Z,815.62
2022-08-22T11:28:56.554Z,804.38
2022-08-22T11:29:56.515Z,798.75
2022-08-22T11:30:56.492Z,798.75
2022-08-22T11:32:01.454Z,804.38
2022-08-22T11:32:58.908Z,798.75
2022-08-22T11:33:57.462Z,793.12
2022-08-22T11:34:56.434Z,781.88
2022-08-22T11:35:56.430Z,765.00
2022-08-22T11:36:56.432Z,618.75
2022-08-22T11:37:56.608Z,590.62
2022-08-22T11:38:56.397Z,585.00
2022-08-22T11:39:56.431Z,579.38
2022-08-22T11:40:56.361Z,568.12
2022-08-22T11:41:56.331Z,573.75
2022-08-22T11:42:56.370Z,585.00
2022-08-22T11:43:56.312Z,601.88
2022-08-22T11:44:56.296Z,607.50
2022-08-22T11:45:56.333Z,618.75
2022-08-22T11:46:56.331Z,624.38
2022-08-22T11:47:56.272Z,624.38
2022-08-22T11:48:56.227Z,624.38
2022-08-22T11:49:56.211Z,618.75
2022-08-22T11:50:56.223Z,624.38
2022-08-22T11:51:56.190Z,635.62
2022-08-22T11:52:56.264Z,641.25
2022-08-22T11:53:56.186Z,691.88
2022-08-22T11:54:56.148Z,708.75
2022-08-22T11:55:56.163Z,630.00
2022-08-22T11:56:56.112Z,635.62
2022-08-22T11:57:56.119Z,624.38
2022-08-22T11:58:56.076Z,624.38
2022-08-22T11:59:56.086Z,613.12
2022-08-22T12:00:56.039Z,607.50
2022-08-22T12:01:56.102Z,596.25
2022-08-22T12:02:56.071Z,590.62
2022-08-22T12:03:58.629Z,585.00
2022-08-22T12:04:55.977Z,585.00
2022-08-22T12:05:55.975Z,585.00
2022-08-22T12:06:56.216Z,585.00
2022-08-22T12:07:55.995Z,596.25
2022-08-22T12:08:55.912Z,601.88
2022-08-22T12:09:55.898Z,613.12
2022-08-22T12:10:55.895Z,624.38
2022-08-22T12:11:55.864Z,607.50
2022-08-22T12:12:55.941Z,590.62
2022-08-22T12:14:06.200Z,585.00
2022-08-22T12:14:56.827Z,585.00
2022-08-22T12:15:55.882Z,590.62
2022-08-22T12:16:55.801Z,596.25
2022-08-22T12:18:01.532Z,596.25
2022-08-22T12:18:56.748Z,596.25
2022-08-22T12:20:28.128Z,618.75
2022-08-22T12:20:55.751Z,652.50
2022-08-22T12:21:55.708Z,658.12
2022-08-22T12:22:55.755Z,669.38
2022-08-22T12:23:55.702Z,675.00